Time;durP1;ratioP1;P1;durP2;ratioP2;P2;SDS_P1;SDS_P2;PMS_P1;PMS_P2;Temp;Humidity;BMP_temperature;BMP_pressure;BME280_temperature;BME280_humidity;BME280_pressure;Samples;Min_cycle;Max_cycle;Signal;HPM_P1;HPM_P2
2022/03/11 00:00:04;;;;;;;50.10;21.33;;;;;;;;;;6230168;28;20053;-52
2022/03/11 00:03:25;;;;;;;65.18;25.05;;;;;;;;;;6230296;28;20053;-53
2022/03/11 00:06:25;;;;;;;56.83;23.05;;;;;;;;;;6229034;28;20057;-53
2022/03/11 00:09:26;;;;;;;61.83;24.05;;;;;;;;;;6229197;28;20096;-58
2022/03/11 00:12:27;;;;;;;58.78;23.00;;;;;;;;;;6224012;28;20140;-55
2022/03/11 00:15:27;;;;;;;64.63;23.13;;;;;;;;;;6226054;28;20046;-55
2022/03/11 00:18:28;;;;;;;62.88;24.30;;;;;;;;;;6228069;28;20045;-54
2022/03/11 00:21:29;;;;;;;68.47;26.27;;;;;;;;;;6225834;28;20052;-58
2022/03/11 00:24:29;;;;;;;84.20;25.23;;;;;;;;;;6227833;28;20060;-57
2022/03/11 00:27:30;;;;;;;84.78;26.70;;;;;;;;;;6222184;28;20107;-55
2022/03/11 00:30:31;;;;;;;81.65;26.35;;;;;;;;;;6228640;28;20054;-55
2022/03/11 00:33:32;;;;;;;75.78;24.95;;;;;;;;;;6229899;28;20049;-56
2022/03/11 00:36:32;;;;;;;64.93;24.00;;;;;;;;;;6230561;28;20147;-59
2022/03/11 00:39:33;;;;;;;58.97;22.58;;;;;;;;;;6229806;28;20065;-53
2022/03/11 00:42:34;;;;;;;53.10;21.70;;;;;;;;;;6232121;28;20134;-56
2022/03/11 00:45:35;;;;;;;55.67;24.17;;;;;;;;;;6241872;28;20106;-56
2022/03/11 00:48:35;;;;;;;54.85;21.55;;;;;;;;;;6235533;28;20049;-57
2022/03/11 00:51:36;;;;;;;59.70;21.63;;;;;;;;;;6234606;28;20083;-53
2022/03/11 00:54:36;;;;;;;57.75;21.65;;;;;;;;;;6229643;28;20120;-56
2022/03/11 00:57:37;;;;;;;59.88;21.02;;;;;;;;;;6230741;28;20111;-57
2022/03/11 01:00:38;;;;;;;47.40;17.98;;;;;;;;;;6231655;28;20045;-55
2022/03/11 01:03:39;;;;;;;45.60;17.95;;;;;;;;;;6232573;28;20411;-58
2022/03/11 01:06:40;;;;;;;54.17;20.27;;;;;;;;;;6230396;28;20049;-53
2022/03/11 01:09:41;;;;;;;39.78;16.13;;;;;;;;;;6229101;28;20107;-52
2022/03/11 01:12:43;;;;;;;45.63;17.85;;;;;;;;;;6229546;28;20045;-58
2022/03/11 01:15:43;;;;;;;44.67;17.23;;;;;;;;;;6230589;28;20052;-55
2022/03/11 01:18:44;;;;;;;58.35;19.40;;;;;;;;;;6230726;28;20101;-53
2022/03/11 01:21:45;;;;;;;46.67;19.35;;;;;;;;;;6228674;28;20137;-55
2022/03/11 01:24:45;;;;;;;51.03;18.48;;;;;;;;;;6224898;28;20077;-55
2022/03/11 01:27:46;;;;;;;59.28;20.42;;;;;;;;;;6226921;28;20048;-53
2022/03/11 01:30:47;;;;;;;52.67;18.88;;;;;;;;;;6226911;28;20136;-52
2022/03/11 01:33:48;;;;;;;54.13;18.88;;;;;;;;;;6231006;28;20489;-52
2022/03/11 01:36:49;;;;;;;46.95;18.13;;;;;;;;;;6229203;28;20153;-51
2022/03/11 01:39:50;;;;;;;50.70;19.20;;;;;;;;;;6229529;28;20131;-54
2022/03/11 01:42:50;;;;;;;44.10;18.70;;;;;;;;;;6228615;28;20481;-52
2022/03/11 01:45:51;;;;;;;44.58;16.35;;;;;;;;;;6224185;28;20041;-52
2022/03/11 01:48:52;;;;;;;41.67;16.70;;;;;;;;;;6229038;28;20057;-51
2022/03/11 01:51:53;;;;;;;44.40;16.33;;;;;;;;;;6231187;28;20116;-57
2022/03/11 01:54:53;;;;;;;45.58;17.88;;;;;;;;;;6232188;28;20049;-53
2022/03/11 01:57:54;;;;;;;48.40;20.05;;;;;;;;;;6228896;28;20049;-51
2022/03/11 02:00:55;;;;;;;51.22;20.20;;;;;;;;;;6230603;28;20465;-51
2022/03/11 02:03:58;;;;;;;46.65;18.63;;;;;;;;;;6231474;28;20397;-52
2022/03/11 02:06:59;;;;;;;41.83;18.63;;;;;;;;;;6242137;28;20057;-58
2022/03/11 02:10:00;;;;;;;48.30;19.92;;;;;;;;;;6235684;28;20530;-54
2022/03/11 02:13:04;;;;;;;45.45;17.70;;;;;;;;;;6231287;28;20144;-52
2022/03/11 02:16:05;;;;;;;36.03;15.10;;;;;;;;;;6229001;28;20049;-53
2022/03/11 02:19:07;;;;;;;32.50;12.95;;;;;;;;;;6228350;28;20151;-52
2022/03/11 02:22:08;;;;;;;29.90;12.57;;;;;;;;;;6228849;28;20085;-54
2022/03/11 02:25:09;;;;;;;28.40;12.02;;;;;;;;;;6231242;28;20049;-52
2022/03/11 02:28:10;;;;;;;26.95;11.02;;;;;;;;;;6225436;28;20096;-59
2022/03/11 02:31:11;;;;;;;29.85;11.77;;;;;;;;;;6233116;28;20184;-54
2022/03/11 02:34:11;;;;;;;29.92;11.32;;;;;;;;;;6222402;28;20128;-53
2022/03/11 02:37:12;;;;;;;30.50;12.32;;;;;;;;;;6228560;28;20480;-53
2022/03/11 02:40:13;;;;;;;31.55;12.40;;;;;;;;;;6229453;28;20042;-54
2022/03/11 02:43:14;;;;;;;28.55;12.00;;;;;;;;;;6231296;28;20187;-53
2022/03/11 02:46:15;;;;;;;33.92;14.25;;;;;;;;;;6228477;28;20092;-52
2022/03/11 02:49:16;;;;;;;31.70;13.07;;;;;;;;;;6224505;28;20185;-53
2022/03/11 02:52:16;;;;;;;36.15;14.52;;;;;;;;;;6229067;28;20045;-54
2022/03/11 02:55:17;;;;;;;33.92;14.00;;;;;;;;;;6230585;28;20080;-55
2022/03/11 02:58:18;;;;;;;35.00;15.25;;;;;;;;;;6224569;28;20049;-52
2022/03/11 03:01:19;;;;;;;33.03;14.20;;;;;;;;;;6225052;28;20046;-52
2022/03/11 03:04:20;;;;;;;34.28;14.23;;;;;;;;;;6222679;28;20049;-55
2022/03/11 03:07:20;;;;;;;34.42;13.85;;;;;;;;;;6228915;28;20052;-51
2022/03/11 03:10:21;;;;;;;35.80;14.27;;;;;;;;;;6230699;28;20909;-55
2022/03/11 03:13:21;;;;;;;31.23;13.07;;;;;;;;;;6225286;28;20054;-52
2022/03/11 03:16:22;;;;;;;33.75;14.00;;;;;;;;;;6227345;28;20050;-52
2022/03/11 03:19:23;;;;;;;32.38;13.20;;;;;;;;;;6229483;28;20497;-55
2022/03/11 03:22:23;;;;;;;33.00;14.38;;;;;;;;;;6228491;28;20911;-51
2022/03/11 03:25:24;;;;;;;35.95;13.75;;;;;;;;;;6226375;28;20060;-52
2022/03/11 03:28:25;;;;;;;29.58;13.05;;;;;;;;;;6228788;28;20052;-55
2022/03/11 03:31:25;;;;;;;30.00;12.63;;;;;;;;;;6226648;28;20579;-55
2022/03/11 03:34:32;;;;;;;34.90;13.05;;;;;;;;;;6227613;28;20045;-52
2022/03/11 03:37:34;;;;;;;33.50;13.13;;;;;;;;;;6226511;28;20102;-53
2022/03/11 03:40:35;;;;;;;31.58;13.55;;;;;;;;;;6229355;28;20496;-52
2022/03/11 03:43:35;;;;;;;32.67;14.68;;;;;;;;;;6230703;28;20165;-52
2022/03/11 03:46:36;;;;;;;32.70;14.48;;;;;;;;;;6226385;28;20060;-52
2022/03/11 03:49:37;;;;;;;36.80;14.93;;;;;;;;;;6224616;28;20094;-51
2022/03/11 03:52:38;;;;;;;40.65;16.40;;;;;;;;;;6228724;28;20077;-51
2022/03/11 03:55:39;;;;;;;39.88;15.43;;;;;;;;;;6226507;28;20045;-52
2022/03/11 03:58:39;;;;;;;34.47;15.95;;;;;;;;;;6225018;28;20101;-52
2022/03/11 04:01:42;;;;;;;34.88;15.52;;;;;;;;;;6229548;28;20140;-51
2022/03/11 04:04:43;;;;;;;30.27;13.52;;;;;;;;;;6229522;28;20089;-50
2022/03/11 04:07:45;;;;;;;28.15;12.77;;;;;;;;;;6230250;28;20060;-51
2022/03/11 04:10:46;;;;;;;35.30;13.73;;;;;;;;;;6231015;28;20060;-54
2022/03/11 04:13:46;;;;;;;30.33;12.68;;;;;;;;;;6232063;28;20377;-53
2022/03/11 04:16:47;;;;;;;28.30;12.93;;;;;;;;;;6236243;28;20499;-53
2022/03/11 04:19:48;;;;;;;30.73;13.07;;;;;;;;;;6233351;28;20447;-50
2022/03/11 04:22:49;;;;;;;30.38;12.52;;;;;;;;;;6234255;28;20059;-51
2022/03/11 04:25:49;;;;;;;33.03;13.45;;;;;;;;;;6236300;28;20136;-53
2022/03/11 04:28:50;;;;;;;34.42;14.40;;;;;;;;;;6230275;28;20037;-55
2022/03/11 04:31:51;;;;;;;33.38;14.05;;;;;;;;;;6231830;28;20135;-53
2022/03/11 04:34:51;;;;;;;34.70;14.35;;;;;;;;;;6232111;28;20077;-51
2022/03/11 04:37:52;;;;;;;30.58;13.80;;;;;;;;;;6233972;28;20046;-51
2022/03/11 04:40:53;;;;;;;33.47;15.15;;;;;;;;;;6233130;28;20848;-54
2022/03/11 04:43:54;;;;;;;36.78;15.27;;;;;;;;;;6231388;28;20041;-55
2022/03/11 04:46:55;;;;;;;38.92;15.55;;;;;;;;;;6227710;28;20136;-51
2022/03/11 04:49:55;;;;;;;32.03;14.02;;;;;;;;;;6239243;28;20560;-50
2022/03/11 04:52:56;;;;;;;36.03;15.02;;;;;;;;;;6234496;28;20038;-50
2022/03/11 04:55:56;;;;;;;33.50;13.40;;;;;;;;;;6242539;28;20067;-60
2022/03/11 04:58:57;;;;;;;41.28;14.57;;;;;;;;;;6241977;28;20077;-52
2022/03/11 05:01:58;;;;;;;36.60;14.57;;;;;;;;;;6237942;28;20137;-61
2022/03/11 05:05:06;;;;;;;34.63;15.48;;;;;;;;;;6230275;28;20111;-51
2022/03/11 05:08:07;;;;;;;39.08;15.93;;;;;;;;;;6226757;28;20050;-50
2022/03/11 05:11:08;;;;;;;31.92;15.43;;;;;;;;;;6232211;28;20061;-52
2022/03/11 05:14:08;;;;;;;38.55;15.82;;;;;;;;;;6232352;28;20495;-52
2022/03/11 05:17:09;;;;;;;34.67;15.25;;;;;;;;;;6229136;28;20080;-56
2022/03/11 05:20:10;;;;;;;47.13;16.92;;;;;;;;;;6232855;28;20059;-59
2022/03/11 05:23:12;;;;;;;39.22;17.50;;;;;;;;;;6234388;28;20053;-53
2022/03/11 05:26:24;;;;;;;50.88;19.95;;;;;;;;;;6228607;28;20045;-52
2022/03/11 05:29:25;;;;;;;;;;;;;;;;;;6230346;28;20092;-51
2022/03/11 05:32:25;;;;;;;64.03;21.45;;;;;;;;;;6231477;28;19929;-53
2022/03/11 05:35:26;;;;;;;69.70;22.52;;;;;;;;;;6233207;28;20042;-51
2022/03/11 05:38:27;;;;;;;53.97;19.40;;;;;;;;;;6229519;28;20141;-52
2022/03/11 05:41:28;;;;;;;41.53;17.75;;;;;;;;;;6232401;28;20046;-51
2022/03/11 05:44:28;;;;;;;41.65;17.42;;;;;;;;;;6232309;28;20140;-52
2022/03/11 05:47:30;;;;;;;41.45;17.08;;;;;;;;;;6226582;28;20052;-52
2022/03/11 05:50:30;;;;;;;45.55;17.10;;;;;;;;;;6223898;28;21207;-53
2022/03/11 05:53:32;;;;;;;46.08;16.25;;;;;;;;;;6228448;28;20042;-55
2022/03/11 05:56:34;;;;;;;39.08;16.17;;;;;;;;;;6231635;28;20045;-59
2022/03/11 05:59:34;;;;;;;;;;;;;;;;;;6231929;28;20140;-52
2022/03/11 06:02:39;;;;;;;47.90;18.23;;;;;;;;;;6230638;28;19924;-53
2022/03/11 06:05:40;;;;;;;48.40;18.90;;;;;;;;;;6225643;28;20531;-54
2022/03/11 06:08:41;;;;;;;45.50;17.73;;;;;;;;;;6240405;28;20268;-56
2022/03/11 06:11:42;;;;;;;45.10;19.23;;;;;;;;;;6230731;28;20077;-58
2022/03/11 06:14:42;;;;;;;45.65;19.00;;;;;;;;;;6221582;28;20095;-51
2022/03/11 06:17:43;;;;;;;46.22;19.13;;;;;;;;;;6230639;28;20045;-59
2022/03/11 06:20:45;;;;;;;59.58;21.23;;;;;;;;;;6238314;28;20056;-60
2022/03/11 06:23:45;;;;;;;52.53;19.45;;;;;;;;;;6237723;28;20054;-59
2022/03/11 06:26:46;;;;;;;47.80;20.20;;;;;;;;;;6240818;28;20140;-55
2022/03/11 06:29:47;;;;;;;47.38;18.95;;;;;;;;;;6239033;28;20385;-56
2022/03/11 06:32:49;;;;;;;53.70;19.55;;;;;;;;;;6239841;28;20056;-57
2022/03/11 06:35:50;;;;;;;50.92;19.45;;;;;;;;;;6231516;28;20092;-53
2022/03/11 06:38:51;;;;;;;51.45;20.40;;;;;;;;;;6230069;28;20053;-54
2022/03/11 06:41:51;;;;;;;51.13;19.58;;;;;;;;;;6231945;28;20045;-59
2022/03/11 06:44:52;;;;;;;46.90;18.85;;;;;;;;;;6232483;28;20124;-60
2022/03/11 06:47:53;;;;;;;42.67;17.13;;;;;;;;;;6225564;28;20544;-56
2022/03/11 06:50:53;;;;;;;37.58;16.40;;;;;;;;;;6228716;28;20099;-57
2022/03/11 06:53:54;;;;;;;35.80;15.95;;;;;;;;;;6225878;28;20049;-52
2022/03/11 06:56:56;;;;;;;45.30;16.48;;;;;;;;;;6227580;28;20061;-55
2022/03/11 06:59:56;;;;;;;34.17;14.23;;;;;;;;;;6227271;28;20551;-55
2022/03/11 07:02:58;;;;;;;42.53;15.50;;;;;;;;;;6232074;28;20038;-59
2022/03/11 07:06:00;;;;;;;41.10;16.30;;;;;;;;;;6229232;28;20492;-57
2022/03/11 07:09:01;;;;;;;42.17;16.52;;;;;;;;;;6227756;28;20077;-55
2022/03/11 07:12:03;;;;;;;38.65;13.95;;;;;;;;;;6226894;28;20175;-55
2022/03/11 07:15:05;;;;;;;36.97;13.57;;;;;;;;;;6229378;28;20057;-53
2022/03/11 07:18:06;;;;;;;43.95;16.00;;;;;;;;;;6227847;28;20103;-54
2022/03/11 07:21:07;;;;;;;45.35;16.20;;;;;;;;;;6226034;28;20132;-55
2022/03/11 07:24:08;;;;;;;42.03;15.90;;;;;;;;;;6228766;28;20073;-55
2022/03/11 07:27:10;;;;;;;33.92;13.50;;;;;;;;;;6225741;28;20560;-58
2022/03/11 07:30:12;;;;;;;30.88;12.70;;;;;;;;;;6232282;28;20104;-58
2022/03/11 07:33:13;;;;;;;33.60;12.13;;;;;;;;;;6231334;28;20049;-58
2022/03/11 07:36:13;;;;;;;25.13;10.02;;;;;;;;;;6228445;28;20427;-59
2022/03/11 07:39:14;;;;;;;21.50;8.85;;;;;;;;;;6228612;28;20483;-57
2022/03/11 07:42:15;;;;;;;26.73;9.40;;;;;;;;;;6232717;28;20050;-59
2022/03/11 07:45:16;;;;;;;22.38;9.38;;;;;;;;;;6234235;28;20110;-58
2022/03/11 07:48:18;;;;;;;26.25;10.15;;;;;;;;;;6234033;28;20097;-53
2022/03/11 07:51:21;;;;;;;28.05;9.90;;;;;;;;;;6244377;28;20056;-58
2022/03/11 07:54:21;;;;;;;25.88;8.45;;;;;;;;;;6244323;28;20069;-55
2022/03/11 07:57:22;;;;;;;24.10;9.43;;;;;;;;;;6244551;28;20411;-56
2022/03/11 08:00:22;;;;;;;20.08;8.98;;;;;;;;;;6242198;28;20473;-54
2022/03/11 08:03:23;;;;;;;19.88;8.85;;;;;;;;;;6243507;28;20041;-54
2022/03/11 08:06:24;;;;;;;28.60;9.43;;;;;;;;;;6243353;28;20152;-58
2022/03/11 08:09:24;;;;;;;20.00;8.63;;;;;;;;;;6240671;28;20724;-57
2022/03/11 08:12:25;;;;;;;25.67;9.73;;;;;;;;;;6244630;28;20133;-53
2022/03/11 08:15:26;;;;;;;20.85;9.00;;;;;;;;;;6235595;28;20041;-59
2022/03/11 08:18:27;;;;;;;21.35;7.82;;;;;;;;;;6235151;28;20131;-55
2022/03/11 08:21:28;;;;;;;20.23;7.97;;;;;;;;;;6235181;28;20041;-59
2022/03/11 08:24:29;;;;;;;15.88;7.38;;;;;;;;;;6232947;28;20045;-53
2022/03/11 08:27:29;;;;;;;18.48;7.25;;;;;;;;;;6232677;28;20046;-54
2022/03/11 08:30:31;;;;;;;20.30;7.40;;;;;;;;;;6234569;28;20075;-55
2022/03/11 08:33:34;;;;;;;15.10;7.28;;;;;;;;;;6229568;28;20065;-58
2022/03/11 08:36:34;;;;;;;16.92;6.57;;;;;;;;;;6227818;28;20042;-57
2022/03/11 08:39:35;;;;;;;15.27;6.00;;;;;;;;;;6230134;28;20129;-58
2022/03/11 08:42:37;;;;;;;12.18;5.80;;;;;;;;;;6233307;28;20075;-58
2022/03/11 08:45:38;;;;;;;15.18;5.88;;;;;;;;;;6233544;28;20057;-55
2022/03/11 08:48:41;;;;;;;19.35;6.65;;;;;;;;;;6238469;28;20079;-57
2022/03/11 08:51:43;;;;;;;15.82;6.32;;;;;;;;;;6243378;28;20045;-54
2022/03/11 08:54:44;;;;;;;14.32;5.82;;;;;;;;;;6241530;28;20041;-53
2022/03/11 08:57:51;;;;;;;16.00;5.88;;;;;;;;;;6241413;28;20140;-53
2022/03/11 09:00:52;;;;;;;13.10;6.07;;;;;;;;;;6243026;28;20469;-52
2022/03/11 09:03:52;;;;;;;16.25;5.95;;;;;;;;;;6241183;28;20048;-52
2022/03/11 09:06:53;;;;;;;13.70;5.78;;;;;;;;;;6240418;28;20053;-56
2022/03/11 09:09:54;;;;;;;11.25;5.57;;;;;;;;;;6231220;28;20132;-60
2022/03/11 09:12:55;;;;;;;16.08;6.22;;;;;;;;;;6236078;28;20076;-58
2022/03/11 09:15:55;;;;;;;14.75;5.85;;;;;;;;;;6233558;28;20283;-56
2022/03/11 09:18:56;;;;;;;13.85;6.28;;;;;;;;;;6224819;28;20037;-59
2022/03/11 09:21:56;;;;;;;13.88;5.55;;;;;;;;;;6229896;28;20148;-59
2022/03/11 09:24:58;;;;;;;15.07;5.88;;;;;;;;;;6230882;28;20046;-58
2022/03/11 09:27:58;;;;;;;12.07;5.57;;;;;;;;;;6231333;28;20052;-58
2022/03/11 09:31:01;;;;;;;15.98;5.40;;;;;;;;;;6232887;28;20058;-62
2022/03/11 09:34:01;;;;;;;16.27;5.50;;;;;;;;;;6231540;28;20103;-57
2022/03/11 09:37:02;;;;;;;13.07;4.90;;;;;;;;;;6229723;28;20045;-59
2022/03/11 09:40:04;;;;;;;13.18;5.30;;;;;;;;;;6231218;28;22007;-60
2022/03/11 09:43:05;;;;;;;16.45;6.03;;;;;;;;;;6231808;28;20128;-57
2022/03/11 09:46:08;;;;;;;12.27;4.90;;;;;;;;;;6228135;28;20053;-57
2022/03/11 09:49:12;;;;;;;10.55;4.93;;;;;;;;;;6228746;28;20154;-58
2022/03/11 09:52:14;;;;;;;14.32;5.15;;;;;;;;;;6234095;28;20060;-58
2022/03/11 09:55:15;;;;;;;;;;;;;;;;;;6226511;28;20049;-52
2022/03/11 09:58:15;;;;;;;10.95;4.03;;;;;;;;;;6228223;28;19963;-60
2022/03/11 10:01:16;;;;;;;12.27;5.43;;;;;;;;;;6231658;28;20449;-57
2022/03/11 10:04:17;;;;;;;10.27;3.97;;;;;;;;;;6230445;28;20064;-61
2022/03/11 10:07:26;;;;;;;10.60;4.50;;;;;;;;;;6229095;28;20056;-60
2022/03/11 10:10:28;;;;;;;12.68;4.85;;;;;;;;;;6221044;28;20124;-57
2022/03/11 10:13:37;;;;;;;10.27;4.38;;;;;;;;;;6240102;28;20068;-59
2022/03/11 10:16:38;;;;;;;8.85;4.30;;;;;;;;;;6241288;28;20167;-60
2022/03/11 10:19:53;;;;;;;10.43;4.22;;;;;;;;;;6225617;28;20377;-60
2022/03/11 10:22:53;;;;;;;9.35;3.50;;;;;;;;;;6234270;28;20050;-59
2022/03/11 10:26:02;;;;;;;9.98;4.03;;;;;;;;;;6330421;27;20810;-57
2022/03/11 10:29:05;;;;;;;8.10;4.00;;;;;;;;;;6326608;28;20076;-60
2022/03/11 10:32:07;;;;;;;;;;;;;;;;;;6328274;28;20056;-56
2022/03/11 10:35:09;;;;;;;10.60;4.13;;;;;;;;;;6326231;28;19955;-61
2022/03/11 10:38:15;;;;;;;10.30;4.10;;;;;;;;;;6324211;28;20043;-55
2022/03/11 10:41:17;;;;;;;8.23;3.92;;;;;;;;;;6325311;28;20059;-56
2022/03/11 10:44:23;;;;;;;10.53;4.40;;;;;;;;;;6316175;28;20147;-55
2022/03/11 10:47:27;;;;;;;11.38;4.35;;;;;;;;;;6313563;28;20059;-60
2022/03/11 10:50:35;;;;;;;10.35;4.15;;;;;;;;;;6314434;28;20048;-55
2022/03/11 10:53:40;;;;;;;10.63;4.22;;;;;;;;;;6315738;28;20083;-61
2022/03/11 10:56:42;;;;;;;11.75;4.40;;;;;;;;;;6321595;28;20039;-61
2022/03/11 10:59:43;;;;;;;11.98;5.07;;;;;;;;;;6321329;28;20079;-60
2022/03/11 11:02:48;;;;;;;14.18;5.45;;;;;;;;;;6320535;28;20595;-59
2022/03/11 11:05:49;;;;;;;16.23;6.00;;;;;;;;;;6318534;28;20036;-60
2022/03/11 11:08:49;;;;;;;11.30;4.72;;;;;;;;;;6318123;28;20121;-60
2022/03/11 11:11:51;;;;;;;11.30;5.00;;;;;;;;;;6320983;28;20052;-57
2022/03/11 11:15:15;;;;;;;;;;;;;;;;;;6316162;28;20585;-60
2022/03/11 11:18:16;;;;;;;11.63;4.20;;;;;;;;;;6316525;28;20515;-60
2022/03/11 11:21:24;;;;;;;10.93;4.68;;;;;;;;;;6316037;28;20529;-54
2022/03/11 11:24:25;;;;;;;16.45;6.13;;;;;;;;;;6316180;28;20162;-60
2022/03/11 11:27:26;;;;;;;12.25;5.15;;;;;;;;;;6317449;28;20040;-60
2022/03/11 11:30:27;;;;;;;9.02;4.13;;;;;;;;;;6315179;28;20173;-60
2022/03/11 11:33:28;;;;;;;15.73;4.57;;;;;;;;;;6315293;28;20050;-60
2022/03/11 11:36:39;;;;;;;16.58;5.47;;;;;;;;;;6311035;28;20052;-60
2022/03/11 11:39:47;;;;;;;11.07;4.63;;;;;;;;;;6299481;28;20066;-60
2022/03/11 11:43:29;;;;;;;15.68;4.90;;;;;;;;;;6315282;28;20075;-60
2022/03/11 11:46:36;;;;;;;15.90;5.45;;;;;;;;;;6304814;28;20121;-56
2022/03/11 11:49:44;;;;;;;15.23;5.20;;;;;;;;;;6312381;28;20071;-60
2022/03/11 11:52:54;;;;;;;9.35;4.15;;;;;;;;;;6315392;28;20047;-60
2022/03/11 11:55:55;;;;;;;9.05;3.42;;;;;;;;;;6313504;28;20438;-61
2022/03/11 11:59:02;;;;;;;8.68;4.32;;;;;;;;;;6304893;28;20171;-60
2022/03/11 12:02:23;;;;;;;12.55;4.53;;;;;;;;;;6298059;28;20044;-59
2022/03/11 12:05:45;;;;;;;12.77;4.18;;;;;;;;;;6296899;28;20084;-60
2022/03/11 12:08:47;;;;;;;;;;;;;;;;;;6298779;28;20083;-60
2022/03/11 12:11:47;;;;;;;10.07;4.22;;;;;;;;;;6297638;28;20001;-60
2022/03/11 12:15:00;;;;;;;10.88;4.68;;;;;;;;;;6301962;28;20040;-60
2022/03/11 12:18:02;;;;;;;;;;;;;;;;;;6302490;28;20044;-60
2022/03/11 12:21:03;;;;;;;10.80;4.38;;;;;;;;;;6296936;28;19920;-60
2022/03/11 12:24:33;;;;;;;14.85;5.45;;;;;;;;;;6299191;28;20601;-61
2022/03/11 12:28:00;;;;;;;14.95;6.32;;;;;;;;;;6301590;28;20048;-59
2022/03/11 12:31:03;;;;;;;13.60;6.10;;;;;;;;;;6302890;28;20079;-61
2022/03/11 12:34:05;;;;;;;9.82;4.32;;;;;;;;;;6297083;28;20078;-60
2022/03/11 12:37:07;;;;;;;;;;;;;;;;;;6295446;28;20645;-60
2022/03/11 12:40:09;;;;;;;11.15;4.65;;;;;;;;;;6308489;28;20290;-60
2022/03/11 12:43:12;;;;;;;11.98;5.13;;;;;;;;;;6312144;28;20040;-59
2022/03/11 12:46:12;;;;;;;11.77;5.32;;;;;;;;;;6302579;28;20072;-60
2022/03/11 12:49:25;;;;;;;11.23;5.00;;;;;;;;;;6309719;28;20641;-59
2022/03/11 12:52:26;;;;;;;10.65;4.85;;;;;;;;;;6316228;28;20073;-60
2022/03/11 12:55:30;;;;;;;12.30;5.15;;;;;;;;;;6311865;28;20410;-60
2022/03/11 12:58:33;;;;;;;12.75;5.07;;;;;;;;;;6306563;28;20074;-61
2022/03/11 13:01:35;;;;;;;18.98;7.75;;;;;;;;;;6307059;28;20048;-60
2022/03/11 13:04:45;;;;;;;13.07;4.97;;;;;;;;;;6309754;28;20068;-60
2022/03/11 13:07:46;;;;;;;12.65;5.20;;;;;;;;;;6302219;28;20512;-60
2022/03/11 13:10:49;;;;;;;14.85;5.22;;;;;;;;;;6299012;28;20040;-60
2022/03/11 13:13:52;;;;;;;23.70;7.90;;;;;;;;;;6303311;28;20138;-60
2022/03/11 13:16:53;;;;;;;12.30;5.20;;;;;;;;;;6297086;28;20159;-60
2022/03/11 13:19:54;;;;;;;16.17;6.35;;;;;;;;;;6300030;28;20407;-59
2022/03/11 13:22:57;;;;;;;16.90;5.57;;;;;;;;;;6296861;28;20051;-58
2022/03/11 13:25:57;;;;;;;;;;;;;;;;;;6303006;28;20082;-59
2022/03/11 13:29:00;;;;;;;13.68;5.63;;;;;;;;;;6299632;28;19967;-60
2022/03/11 13:32:00;;;;;;;10.85;4.72;;;;;;;;;;6297791;28;20487;-59
2022/03/11 13:35:01;;;;;;;14.77;6.32;;;;;;;;;;6297470;28;20047;-60
2022/03/11 13:38:02;;;;;;;12.32;4.93;;;;;;;;;;6293951;28;20044;-61
2022/03/11 13:41:04;;;;;;;11.10;4.80;;;;;;;;;;6299171;28;20117;-60
2022/03/11 13:44:08;;;;;;;16.55;7.18;;;;;;;;;;6298409;28;20525;-60
2022/03/11 13:47:15;;;;;;;12.50;5.30;;;;;;;;;;6297685;28;20605;-60
2022/03/11 13:50:24;;;;;;;9.90;4.93;;;;;;;;;;6296234;28;20044;-60
2022/03/11 13:53:27;;;;;;;12.50;5.78;;;;;;;;;;6297892;28;20036;-60
2022/03/11 13:56:27;;;;;;;11.07;4.85;;;;;;;;;;6300670;28;20606;-60
2022/03/11 13:59:33;;;;;;;11.98;4.97;;;;;;;;;;6292566;28;20056;-60
2022/03/11 14:02:33;;;;;;;13.30;4.60;;;;;;;;;;6290102;28;20052;-60
2022/03/11 14:05:40;;;;;;;12.35;5.47;;;;;;;;;;6294549;28;20408;-59
2022/03/11 14:08:40;;;;;;;11.30;5.18;;;;;;;;;;6301100;28;20049;-60
2022/03/11 14:11:42;;;;;;;11.77;4.20;;;;;;;;;;6294837;28;20126;-60
2022/03/11 14:14:44;;;;;;;14.65;5.68;;;;;;;;;;6315769;28;20105;-56
2022/03/11 14:17:45;;;;;;;14.32;5.82;;;;;;;;;;6304649;28;20592;-60
2022/03/11 14:20:46;;;;;;;13.23;5.95;;;;;;;;;;6297538;28;20124;-61
2022/03/11 14:23:46;;;;;;;11.52;5.32;;;;;;;;;;6301073;28;20525;-60
2022/03/11 14:26:48;;;;;;;14.40;5.45;;;;;;;;;;6302162;28;20048;-59
2022/03/11 14:29:48;;;;;;;12.88;5.05;;;;;;;;;;6298022;28;20478;-61
2022/03/11 14:32:50;;;;;;;17.13;6.00;;;;;;;;;;6293411;28;20132;-60
2022/03/11 14:35:51;;;;;;;11.80;5.03;;;;;;;;;;6292907;28;20098;-59
2022/03/11 14:38:52;;;;;;;17.15;6.35;;;;;;;;;;6292960;28;20064;-60
2022/03/11 14:41:53;;;;;;;15.57;5.53;;;;;;;;;;6293008;28;20731;-61
2022/03/11 14:44:53;;;;;;;27.42;7.10;;;;;;;;;;6298280;28;20520;-61
2022/03/11 14:47:54;;;;;;;18.15;6.22;;;;;;;;;;6297281;28;20048;-60
2022/03/11 14:50:55;;;;;;;10.38;5.13;;;;;;;;;;6295186;28;20127;-60
2022/03/11 14:53:55;;;;;;;11.10;4.90;;;;;;;;;;6299631;28;20064;-60
2022/03/11 14:56:56;;;;;;;17.95;5.10;;;;;;;;;;6297115;28;20135;-60
2022/03/11 14:59:58;;;;;;;18.20;6.47;;;;;;;;;;6296249;28;20157;-61
2022/03/11 15:03:00;;;;;;;12.55;5.35;;;;;;;;;;6299132;28;20047;-60
2022/03/11 15:06:01;;;;;;;13.38;5.25;;;;;;;;;;6296116;28;20056;-60
2022/03/11 15:09:01;;;;;;;12.10;4.80;;;;;;;;;;6296901;28;20127;-59
2022/03/11 15:12:02;;;;;;;15.88;5.22;;;;;;;;;;6302857;28;20052;-55
2022/03/11 15:15:03;;;;;;;13.52;5.63;;;;;;;;;;6306627;28;20178;-61
2022/03/11 15:18:06;;;;;;;11.65;4.95;;;;;;;;;;6295714;28;20090;-55
2022/03/11 15:21:06;;;;;;;;;;;;;;;;;;6303857;28;20036;-60
2022/03/11 15:24:07;;;;;;;14.30;5.15;;;;;;;;;;6300699;28;19927;-52
2022/03/11 15:27:08;;;;;;;13.40;5.78;;;;;;;;;;6299095;28;21222;-53
2022/03/11 15:30:09;;;;;;;16.60;6.25;;;;;;;;;;6297508;28;20051;-52
2022/03/11 15:33:10;;;;;;;15.60;6.35;;;;;;;;;;6302666;28;20047;-57
2022/03/11 15:36:11;;;;;;;17.02;6.47;;;;;;;;;;6302340;28;20072;-55
2022/03/11 15:39:13;;;;;;;22.48;7.35;;;;;;;;;;6297410;28;20630;-56
2022/03/11 15:42:14;;;;;;;17.95;6.85;;;;;;;;;;6299328;28;20159;-53
2022/03/11 15:45:15;;;;;;;18.20;7.10;;;;;;;;;;6300622;28;20060;-53
2022/03/11 15:48:16;;;;;;;13.55;6.43;;;;;;;;;;6298168;28;20517;-52
2022/03/11 15:51:18;;;;;;;19.83;7.28;;;;;;;;;;6298122;28;20122;-52
2022/03/11 15:54:21;;;;;;;22.00;7.63;;;;;;;;;;6299407;28;20075;-52
2022/03/11 15:57:23;;;;;;;15.45;6.35;;;;;;;;;;6299262;28;20101;-52
2022/03/11 16:00:24;;;;;;;15.68;5.93;;;;;;;;;;6299633;28;20048;-53
2022/03/11 16:03:24;;;;;;;10.80;5.85;;;;;;;;;;6302023;28;20199;-51
2022/03/11 16:06:26;;;;;;;18.73;7.20;;;;;;;;;;6299923;28;20056;-52
2022/03/11 16:09:26;;;;;;;24.05;8.88;;;;;;;;;;6298294;28;20052;-53
2022/03/11 16:12:27;;;;;;;28.02;11.07;;;;;;;;;;6300635;28;20068;-55
2022/03/11 16:15:29;;;;;;;33.63;11.57;;;;;;;;;;6300295;28;20048;-52
2022/03/11 16:18:30;;;;;;;22.17;8.45;;;;;;;;;;6296517;28;20064;-54
2022/03/11 16:21:31;;;;;;;21.80;8.63;;;;;;;;;;6298492;28;20097;-52
2022/03/11 16:24:31;;;;;;;27.23;9.23;;;;;;;;;;6296917;28;20162;-51
2022/03/11 16:27:33;;;;;;;25.83;9.25;;;;;;;;;;6297599;28;20052;-55
2022/03/11 16:30:34;;;;;;;27.77;9.93;;;;;;;;;;6296717;28;20090;-53
2022/03/11 16:33:34;;;;;;;31.05;10.32;;;;;;;;;;6301355;28;20556;-50
2022/03/11 16:36:37;;;;;;;28.17;9.43;;;;;;;;;;6301005;28;20680;-51
2022/03/11 16:39:38;;;;;;;27.45;8.73;;;;;;;;;;6295422;28;20054;-59
2022/03/11 16:42:38;;;;;;;27.38;9.68;;;;;;;;;;6299629;28;20085;-52
2022/03/11 16:45:39;;;;;;;32.38;10.38;;;;;;;;;;6301104;28;21284;-49
2022/03/11 16:48:43;;;;;;;34.25;12.02;;;;;;;;;;6297869;28;21202;-52
2022/03/11 16:51:44;;;;;;;32.63;11.82;;;;;;;;;;6298438;28;20052;-52
2022/03/11 16:54:45;;;;;;;32.80;11.88;;;;;;;;;;6298391;28;20153;-53
2022/03/11 16:57:46;;;;;;;28.27;12.38;;;;;;;;;;6297972;28;20048;-53
2022/03/11 17:00:47;;;;;;;30.80;13.15;;;;;;;;;;6295442;28;20045;-51
2022/03/11 17:03:48;;;;;;;32.35;14.18;;;;;;;;;;6297598;28;20058;-52
2022/03/11 17:06:49;;;;;;;39.08;14.90;;;;;;;;;;6297845;28;20068;-53
2022/03/11 17:09:49;;;;;;;34.20;14.57;;;;;;;;;;6296583;28;20482;-51
2022/03/11 17:12:51;;;;;;;37.65;15.30;;;;;;;;;;6299944;28;20043;-54
2022/03/11 17:15:51;;;;;;;38.35;15.02;;;;;;;;;;6301517;28;20669;-53
2022/03/11 17:18:52;;;;;;;43.60;14.98;;;;;;;;;;6294713;28;20853;-53
2022/03/11 17:21:53;;;;;;;59.75;20.20;;;;;;;;;;6296781;28;20052;-55
2022/03/11 17:24:53;;;;;;;56.05;20.83;;;;;;;;;;6296814;28;20086;-53
2022/03/11 17:27:54;;;;;;;56.92;21.58;;;;;;;;;;6298097;28;20097;-51
2022/03/11 17:30:55;;;;;;;49.55;21.15;;;;;;;;;;6304149;28;20641;-51
2022/03/11 17:33:56;;;;;;;47.85;20.77;;;;;;;;;;6304796;28;20044;-51
2022/03/11 17:36:56;;;;;;;52.90;19.02;;;;;;;;;;6307614;28;20054;-52
2022/03/11 17:39:57;;;;;;;48.65;18.25;;;;;;;;;;6303704;28;20056;-49
2022/03/11 17:42:58;;;;;;;32.85;14.18;;;;;;;;;;6306020;28;20754;-50
2022/03/11 17:45:59;;;;;;;40.08;16.08;;;;;;;;;;6306384;28;20040;-52
2022/03/11 17:49:00;;;;;;;56.65;20.08;;;;;;;;;;6304963;28;20076;-51